Terminal Aerodrome Forecast
Issued by NWS

Home | Current Version | Previous Version | Text Only | Print | Product List | Glossary On
Versions: 1 2 3 4 5 6 7 8 9 10 11 12 13 14 15
000
FTUS46 KLOX 172100 AAA
TAFWJF
TAF AMD
KWJF 172124Z 1721/1818 28006KT P6SM SKC
     FM172200 25015G25KT P6SM VCTS SCT070CB SCT250
     FM180500 24012KT P6SM SCT100
     FM180800 VRB05KT P6SM SCT100=

USA.gov is the U.S. government's official web portal to all federal, state and local government web resources and services.